createdAt,value
2023-02-19T00:00:23.772Z,9.81
2023-02-19T00:01:23.894Z,9.68
2023-02-19T00:02:24.024Z,9.68
2023-02-19T00:03:24.123Z,9.48
2023-02-19T00:04:24.186Z,9.49
2023-02-19T00:05:24.295Z,9.54
2023-02-19T00:06:24.409Z,9.62
2023-02-19T00:07:24.500Z,9.72
2023-02-19T00:08:24.618Z,9.76
2023-02-19T00:09:24.708Z,9.52
2023-02-19T00:10:24.776Z,9.51
2023-02-19T00:11:24.839Z,9.57
2023-02-19T00:12:24.913Z,9.72
2023-02-19T00:13:25.003Z,9.88
2023-02-19T00:14:25.081Z,9.97
2023-02-19T00:15:25.202Z,9.93
2023-02-19T00:16:25.299Z,9.94
2023-02-19T00:17:25.415Z,9.83
2023-02-19T00:18:25.519Z,10.06
2023-02-19T00:19:25.589Z,10.06
2023-02-19T00:20:25.697Z,10.03
2023-02-19T00:21:25.811Z,9.75
2023-02-19T00:22:25.919Z,9.35
2023-02-19T00:23:26.018Z,9.37
2023-02-19T00:24:26.137Z,9.24
2023-02-19T00:25:26.190Z,9.23
2023-02-19T00:26:26.273Z,9.20
2023-02-19T00:27:26.364Z,9.03
2023-02-19T00:43:27.900Z,10.07
2023-02-19T02:00:37.942Z,8.22
2023-02-19T02:01:38.187Z,8.23
2023-02-19T02:02:38.247Z,8.30
2023-02-19T02:03:38.399Z,8.27
2023-02-19T02:04:38.544Z,8.30
2023-02-19T02:05:38.684Z,7.96
2023-02-19T02:06:38.816Z,8.13
2023-02-19T02:07:38.943Z,8.08
2023-02-19T02:08:39.090Z,8.30
2023-02-19T02:09:39.200Z,8.23
2023-02-19T02:10:39.300Z,8.36
2023-02-19T02:11:39.374Z,8.39
2023-02-19T02:12:39.456Z,8.57
2023-02-19T02:13:39.547Z,8.69
2023-02-19T02:14:39.648Z,8.67
2023-02-19T02:15:39.769Z,8.51
2023-02-19T02:16:39.917Z,8.54
2023-02-19T02:17:40.054Z,8.61
2023-02-19T02:18:40.183Z,8.37
2023-02-19T02:19:40.309Z,8.36
2023-02-19T02:20:40.404Z,8.34
2023-02-19T02:21:40.527Z,8.45
2023-02-19T02:22:40.622Z,8.51
2023-02-19T02:23:40.710Z,8.51
2023-02-19T02:24:40.812Z,8.55
2023-02-19T02:25:40.939Z,8.78
2023-02-19T02:26:41.110Z,8.99
2023-02-19T02:27:41.177Z,8.95
2023-02-19T02:28:41.266Z,9.12
2023-02-19T02:29:41.402Z,9.20
2023-02-19T02:30:41.519Z,8.90
2023-02-19T02:31:41.786Z,8.60
2023-02-19T03:24:47.873Z,9.07
2023-02-19T03:25:47.968Z,9.37
2023-02-19T03:26:48.034Z,9.37
2023-02-19T03:27:48.132Z,9.13
2023-02-19T03:28:48.200Z,8.98
2023-02-19T03:29:48.308Z,8.65
2023-02-19T03:30:48.416Z,8.89
2023-02-19T03:31:48.639Z,8.95
2023-02-19T05:05:57.872Z,8.40
2023-02-19T05:06:57.980Z,8.78
2023-02-19T05:07:58.113Z,8.86
2023-02-19T05:08:58.224Z,8.65
2023-02-19T05:09:58.332Z,8.80
2023-02-19T05:10:58.413Z,8.87
2023-02-19T05:11:58.503Z,9.00
2023-02-19T05:12:58.559Z,9.07
2023-02-19T06:43:07.873Z,10.04
2023-02-19T06:44:07.954Z,10.17
2023-02-19T06:45:08.116Z,10.06
2023-02-19T08:24:17.806Z,11.13
2023-02-19T08:25:17.811Z,11.24
2023-02-19T08:26:17.833Z,11.39
2023-02-19T08:27:17.840Z,11.42
2023-02-19T08:28:17.857Z,11.42
2023-02-19T08:29:17.861Z,11.32
2023-02-19T08:30:17.944Z,11.45
2023-02-19T08:31:18.001Z,11.56
2023-02-19T08:32:17.943Z,11.62
2023-02-19T08:33:17.938Z,11.73
2023-02-19T08:34:17.958Z,11.79
2023-02-19T08:35:17.976Z,11.58
2023-02-19T08:36:18.051Z,11.69
2023-02-19T08:37:18.014Z,11.86
2023-02-19T08:38:18.041Z,11.87
2023-02-19T08:39:20.087Z,11.96
2023-02-19T08:40:18.059Z,12.13
2023-02-19T08:41:18.094Z,12.05
2023-02-19T08:42:18.059Z,12.08
2023-02-19T08:43:18.054Z,12.24
2023-02-19T08:44:18.080Z,12.28
2023-02-19T08:45:18.067Z,12.34
2023-02-19T08:46:18.135Z,12.52
2023-02-19T08:47:18.060Z,12.59
2023-02-19T08:48:18.057Z,12.75
2023-02-19T08:49:18.065Z,12.48
2023-02-19T08:50:18.056Z,12.52
2023-02-19T08:51:18.060Z,12.55
2023-02-19T08:52:18.131Z,12.62
2023-02-19T08:53:18.053Z,12.83
2023-02-19T08:54:18.057Z,12.82
2023-02-19T08:55:18.070Z,12.84
2023-02-19T08:56:18.078Z,12.76
2023-02-19T08:57:18.097Z,12.84
2023-02-19T08:58:18.103Z,12.86
2023-02-19T08:59:18.112Z,13.05
2023-02-19T09:00:18.131Z,13.15
2023-02-19T09:01:18.231Z,13.24
2023-02-19T09:02:18.132Z,13.34
2023-02-19T09:03:18.126Z,13.50
2023-02-19T09:04:18.163Z,13.56
2023-02-19T09:05:18.097Z,13.56
2023-02-19T09:06:18.091Z,13.49
2023-02-19T09:07:18.072Z,13.49
2023-02-19T09:08:18.064Z,13.66
2023-02-19T09:09:18.066Z,13.65
2023-02-19T09:10:18.056Z,13.78
2023-02-19T09:11:18.052Z,13.78
2023-02-19T09:12:18.022Z,13.81
2023-02-19T09:13:18.019Z,13.67
2023-02-19T09:14:18.018Z,13.83
2023-02-19T09:15:18.013Z,13.90
2023-02-19T09:16:18.005Z,14.00
2023-02-19T09:17:17.977Z,14.18
2023-02-19T09:18:17.973Z,14.15
2023-02-19T09:19:17.960Z,14.11
2023-02-19T09:20:17.942Z,14.08
2023-02-19T09:21:17.928Z,14.25
2023-02-19T09:22:17.936Z,14.36
2023-02-19T09:23:17.923Z,14.17
2023-02-19T09:24:17.961Z,14.25
2023-02-19T09:25:18.008Z,14.43
2023-02-19T09:26:18.031Z,14.47
2023-02-19T09:27:18.034Z,14.58
2023-02-19T09:28:18.018Z,14.74
2023-02-19T09:29:18.012Z,14.64
2023-02-19T09:30:18.054Z,14.74
2023-02-19T09:31:18.075Z,14.80
2023-02-19T09:32:19.342Z,14.83
2023-02-19T09:33:18.082Z,14.80
2023-02-19T09:34:18.126Z,14.70
2023-02-19T09:42:18.318Z,15.29
2023-02-19T09:43:18.286Z,15.15
2023-02-19T09:44:18.301Z,15.31
2023-02-19T09:45:18.300Z,15.49
2023-02-19T10:42:27.934Z,15.97
2023-02-19T10:43:28.079Z,16.00
2023-02-19T10:44:28.356Z,15.92
2023-02-19T10:45:28.540Z,16.02
2023-02-19T10:46:28.780Z,16.04
2023-02-19T10:47:28.933Z,16.12
2023-02-19T10:48:29.130Z,16.08
2023-02-19T10:49:29.343Z,16.09
2023-02-19T10:50:29.555Z,16.01
2023-02-19T10:51:29.758Z,16.12
2023-02-19T10:52:29.973Z,16.13
2023-02-19T10:53:30.199Z,16.22
2023-02-19T10:54:30.437Z,16.13
2023-02-19T10:55:30.634Z,16.22
2023-02-19T10:56:30.826Z,16.19
2023-02-19T10:57:31.027Z,16.42
2023-02-19T10:58:31.231Z,16.30
2023-02-19T10:59:31.456Z,16.42
2023-02-19T11:00:31.671Z,16.43
2023-02-19T11:01:31.890Z,16.53
2023-02-19T11:02:32.055Z,16.54
2023-02-19T11:03:32.235Z,16.37
2023-02-19T11:04:32.432Z,16.44
2023-02-19T11:05:32.619Z,16.44
2023-02-19T11:06:34.951Z,16.49
2023-02-19T11:07:32.770Z,16.54
2023-02-19T11:08:32.787Z,16.43
2023-02-19T11:09:32.798Z,16.42
2023-02-19T11:10:33.070Z,16.63
2023-02-19T11:11:32.836Z,16.63
2023-02-19T11:12:32.855Z,16.67
2023-02-19T11:13:33.051Z,16.77
2023-02-19T11:14:33.174Z,16.70
2023-02-19T11:15:33.428Z,16.60
2023-02-19T11:16:33.597Z,16.52
2023-02-19T11:17:33.781Z,16.50
2023-02-19T11:18:33.988Z,16.50
2023-02-19T11:19:34.172Z,16.68
2023-02-19T11:20:34.348Z,16.59
2023-02-19T11:21:34.501Z,16.52
2023-02-19T11:22:34.682Z,16.66
2023-02-19T11:23:34.925Z,16.68
2023-02-19T11:24:35.184Z,16.68
2023-02-19T11:25:35.286Z,16.68
2023-02-19T11:26:35.478Z,16.67
2023-02-19T11:27:35.675Z,16.66
2023-02-19T11:28:35.859Z,16.77
2023-02-19T11:29:36.021Z,16.67
2023-02-19T11:30:36.610Z,16.63
2023-02-19T11:31:36.337Z,16.77
2023-02-19T11:32:36.107Z,16.57
2023-02-19T11:33:36.272Z,16.64
2023-02-19T11:34:36.085Z,16.60
2023-02-19T11:35:36.122Z,16.72
2023-02-19T11:36:36.327Z,16.59
2023-02-19T11:37:36.580Z,16.53
2023-02-19T11:38:36.764Z,16.44
2023-02-19T11:39:36.962Z,16.40
2023-02-19T11:40:37.174Z,16.39
2023-02-19T11:41:37.356Z,16.32
2023-02-19T11:42:37.550Z,16.39
2023-02-19T11:43:37.759Z,16.50
2023-02-19T11:44:37.943Z,16.57
2023-02-19T11:45:38.151Z,16.57
2023-02-19T11:46:38.381Z,16.59
2023-02-19T11:47:38.565Z,16.56
2023-02-19T11:48:38.795Z,16.53
2023-02-19T11:49:38.973Z,16.61
2023-02-19T11:50:39.150Z,16.67
2023-02-19T11:51:39.345Z,16.42
2023-02-19T11:52:39.527Z,16.50
2023-02-19T11:53:39.732Z,16.52
2023-02-19T11:54:39.915Z,16.59
2023-02-19T11:55:40.099Z,16.59
2023-02-19T11:56:40.316Z,16.77
2023-02-19T11:57:40.482Z,16.70
2023-02-19T11:58:40.692Z,16.68
2023-02-19T11:59:40.851Z,16.63
2023-02-19T12:00:41.051Z,16.75
2023-02-19T12:01:41.349Z,16.71
2023-02-19T12:02:41.452Z,16.63
2023-02-19T12:03:41.788Z,16.60
2023-02-19T12:04:41.834Z,16.64
2023-02-19T12:05:41.989Z,16.64
2023-02-19T12:06:42.199Z,16.61
2023-02-19T12:07:42.430Z,16.66
2023-02-19T12:08:42.667Z,16.54
2023-02-19T12:09:42.917Z,16.67
2023-02-19T12:10:43.157Z,16.63
2023-02-19T15:09:57.825Z,16.00
2023-02-19T15:10:58.040Z,15.92
2023-02-19T15:11:58.231Z,15.91
2023-02-19T15:12:58.423Z,15.83
2023-02-19T15:13:58.587Z,15.92
2023-02-19T15:14:58.659Z,16.07
2023-02-19T15:15:58.940Z,16.13
2023-02-19T15:16:59.050Z,16.01
2023-02-19T15:17:59.245Z,15.94
2023-02-19T15:18:59.375Z,16.00
2023-02-19T15:19:59.567Z,16.02
2023-02-19T15:20:59.636Z,16.04
2023-02-19T15:21:59.812Z,16.08
2023-02-19T15:22:59.998Z,15.91
2023-02-19T15:24:00.153Z,16.00
2023-02-19T15:25:00.441Z,15.94
2023-02-19T15:26:00.634Z,15.81
2023-02-19T15:27:00.820Z,15.74
2023-02-19T16:05:07.920Z,15.49
2023-02-19T16:06:08.109Z,15.57
2023-02-19T16:07:08.276Z,15.63
2023-02-19T16:08:08.452Z,15.35
2023-02-19T16:58:18.013Z,14.26
2023-02-19T16:59:18.041Z,14.26
2023-02-19T17:00:18.283Z,14.36
2023-02-19T17:01:18.640Z,14.37
2023-02-19T17:02:18.708Z,14.47
2023-02-19T17:03:18.942Z,14.49
2023-02-19T17:04:19.210Z,14.45
2023-02-19T17:05:19.360Z,14.43
2023-02-19T17:06:19.500Z,14.33
2023-02-19T17:07:19.664Z,14.26
2023-02-19T17:08:19.886Z,14.18
2023-02-19T17:09:20.083Z,14.07
2023-02-19T17:48:27.988Z,13.22
2023-02-19T17:49:28.248Z,13.34
2023-02-19T19:26:47.923Z,12.13
2023-02-19T19:27:48.099Z,12.27
2023-02-19T19:28:48.281Z,12.32
2023-02-19T19:29:48.451Z,12.24
2023-02-19T19:30:48.633Z,12.38
2023-02-19T19:31:48.848Z,12.46
2023-02-19T19:32:48.999Z,12.42
2023-02-19T19:33:49.147Z,12.48
2023-02-19T20:15:58.018Z,12.13
2023-02-19T20:16:58.144Z,12.05
2023-02-19T20:17:58.311Z,12.02
2023-02-19T20:18:58.491Z,12.13
2023-02-19T20:19:58.766Z,11.97
2023-02-19T20:20:58.934Z,12.05
2023-02-19T20:21:59.099Z,12.16
2023-02-19T20:22:59.361Z,12.18
2023-02-19T20:23:59.528Z,12.21
2023-02-19T20:24:59.694Z,12.10
2023-02-19T20:25:59.881Z,12.04
2023-02-19T20:27:00.054Z,12.00
2023-02-19T20:28:00.245Z,11.75
2023-02-19T20:29:00.465Z,11.80
2023-02-19T20:30:00.593Z,11.87
2023-02-19T20:31:00.898Z,11.66
2023-02-19T20:32:01.100Z,11.68
2023-02-19T20:33:01.153Z,11.73
2023-02-19T20:34:01.371Z,11.69
2023-02-19T20:35:01.591Z,11.70
2023-02-19T20:36:01.790Z,11.64
2023-02-19T20:37:01.962Z,11.72
2023-02-19T20:38:02.171Z,11.49
2023-02-19T21:32:07.929Z,11.32
2023-02-19T21:33:07.877Z,11.35
2023-02-19T21:34:07.968Z,11.38
2023-02-19T21:35:08.049Z,11.39
2023-02-19T21:36:08.133Z,11.25
2023-02-19T21:37:08.220Z,11.45
2023-02-19T21:38:08.292Z,11.55
2023-02-19T21:39:08.362Z,11.55
2023-02-19T21:40:08.409Z,11.51
2023-02-19T21:41:08.460Z,11.32
2023-02-19T21:42:08.526Z,11.45
2023-02-19T21:43:08.571Z,11.52
2023-02-19T21:44:08.625Z,11.54
2023-02-19T21:45:08.674Z,11.37
2023-02-19T21:46:08.729Z,11.18
2023-02-19T21:47:08.780Z,11.25
2023-02-19T21:48:08.932Z,11.34
2023-02-19T21:49:08.991Z,11.45
2023-02-19T21:50:09.043Z,11.43
2023-02-19T21:51:09.084Z,11.48
2023-02-19T21:52:09.141Z,11.49
2023-02-19T21:53:09.185Z,11.24
2023-02-19T21:54:09.252Z,11.32
2023-02-19T21:55:09.292Z,11.15
2023-02-19T21:56:09.348Z,11.34
2023-02-19T21:57:09.408Z,11.45
2023-02-19T21:58:09.423Z,11.48
2023-02-19T21:59:09.488Z,11.42
2023-02-19T22:00:09.517Z,11.43
2023-02-19T22:01:09.610Z,11.32
2023-02-19T22:02:09.654Z,11.02
2023-02-19T22:03:09.734Z,10.93
2023-02-19T22:04:09.779Z,10.86
2023-02-19T22:05:09.839Z,10.80
2023-02-19T22:06:10.285Z,10.89
2023-02-19T22:07:09.970Z,10.76
2023-02-19T22:08:10.061Z,10.76
2023-02-19T22:09:10.173Z,10.73
2023-02-19T22:10:10.280Z,10.66
2023-02-19T22:11:10.368Z,10.82
2023-02-19T22:12:10.449Z,10.68
2023-02-19T22:13:10.537Z,10.86
2023-02-19T22:14:10.617Z,10.95
2023-02-19T22:15:10.701Z,10.84
2023-02-19T22:16:11.231Z,10.72
2023-02-19T22:17:10.867Z,10.52
2023-02-19T22:18:10.960Z,10.63
2023-02-19T22:19:11.066Z,10.59
2023-02-19T22:20:11.115Z,10.55
2023-02-19T22:21:11.175Z,10.38
2023-02-19T22:22:11.221Z,9.86
2023-02-19T22:23:11.268Z,9.66
2023-02-19T22:24:11.433Z,9.73
2023-02-19T22:25:11.612Z,9.76
2023-02-19T22:26:12.221Z,9.88
2023-02-19T22:27:11.887Z,9.93
2023-02-19T22:28:11.958Z,10.11
2023-02-19T22:29:12.038Z,10.17
2023-02-19T22:30:12.138Z,10.04
2023-02-19T22:31:12.186Z,10.11
2023-02-19T22:32:12.354Z,9.99
2023-02-19T22:33:12.333Z,10.03
2023-02-19T22:34:12.411Z,10.10
2023-02-19T22:35:14.794Z,10.23
2023-02-19T22:36:12.816Z,10.27
2023-02-19T22:37:12.551Z,10.13
2023-02-19T22:38:12.574Z,9.90
2023-02-19T22:39:12.609Z,10.03
2023-02-19T22:40:12.640Z,10.00
2023-02-19T22:41:12.689Z,9.82
2023-02-19T22:42:12.725Z,10.00
2023-02-19T22:43:12.753Z,9.99
2023-02-19T22:44:12.840Z,10.04
2023-02-19T22:45:12.820Z,9.82
2023-02-19T22:46:13.204Z,9.78
2023-02-19T22:47:12.891Z,9.93
2023-02-19T22:48:16.883Z,9.97
2023-02-19T22:49:13.965Z,9.51
2023-02-19T22:50:12.964Z,9.81
2023-02-19T22:51:13.035Z,9.96
2023-02-19T22:52:13.030Z,9.94
2023-02-19T22:53:13.057Z,9.90
2023-02-19T22:54:13.085Z,10.06
2023-02-19T22:55:13.124Z,9.88
2023-02-19T22:56:13.763Z,9.57
2023-02-19T22:57:13.172Z,9.49
2023-02-19T22:58:13.271Z,9.23
2023-02-19T22:59:13.366Z,9.09
2023-02-19T23:00:13.455Z,8.93
2023-02-19T23:01:13.662Z,8.82
2023-02-19T23:02:13.654Z,8.85
2023-02-19T23:03:13.734Z,8.85
2023-02-19T23:04:13.867Z,9.04
2023-02-19T23:05:13.876Z,9.06
2023-02-19T23:06:14.241Z,9.00
2023-02-19T23:07:14.015Z,8.89
2023-02-19T23:08:14.125Z,8.90
2023-02-19T23:09:14.213Z,8.80
2023-02-19T23:10:14.323Z,9.00
2023-02-19T23:11:14.388Z,9.06
2023-02-19T23:12:14.476Z,9.04
2023-02-19T23:13:14.537Z,9.14
2023-02-19T23:14:14.606Z,9.20
2023-02-19T23:15:14.746Z,9.20
2023-02-19T23:16:15.248Z,9.21
2023-02-19T23:17:15.055Z,9.24
2023-02-19T23:18:15.171Z,9.17
2023-02-19T23:46:17.973Z,9.85
2023-02-19T23:47:18.022Z,9.76
2023-02-19T23:48:18.258Z,9.75
2023-02-19T23:49:18.515Z,9.83
